Hovedside
METAR-TAF:

METAR-TAF

Lufthavner :

Pärnu, Estland

Pärnu lufthavn

breddegrad: 58-25-09N, lengdegrad: 024-28-22E, høyde over havet: 14 m

Gjeldene værobservasjon

Denne rapporten ble laget for 7 timer og 42 minutter siden, klokken 13:50 UTC
Vind 6 kt fra Nord
Temperatur -9°C
Luftfuktighet 67%
Trykk 1034 hPa
Sikt 10 km eller mer
Få skyer i en høyde av 1600 ft

METAR: EEPU 241350Z 35006KT 9999 FEW016 M09/M14 Q1034

Tid: 23:32 (21:32 UTC)


TAF: fraværende

Værobservasjoner og værvarsel for over 4000 flyplasser (METAR- og TAF-rapporter).

Tilgjengelige stasjoner er representert av de røde og gule prikkene på kartet.

Hold musepekeren over prikken for å se navnet på stasjonen.

Klikk så for å se værobservasjoner og -varsler.

For å forandre kartet kan du klikke på den grønne knappen med svart kryss for å zoome inn, på den grønne knappen med strek for å zoome ut, eller på de grønne pilene for å se tilstøtende kart.


METAR-TAF: